Hauptseite
METAR-TAF:

METAR-TAF

Flughäfen :

Flughafen Kosrae

Kosrae, Mikronesien

Breite: 05-21N, Länge: 162-57E, Höhe: 3 m

METAR: fehlend

Zeit: 23:37 (12:37 UTC)

Prognose

Neuester Wetterbericht von vor 12 Stunden und 55 Minuten, um 23:42 UTC
Gültige Prognose vom 16 um 00 UTC bis 16 um 24 UTC
Wind 6 kt aus unterschiedlichen Richtungen
Sichtweite: 10 km
Aufgelockert bewölkt in der Höhe von 2000 ft
Aufgelockert bewölkt in der Höhe von 14000 ft
Schauer in der Nähe

TAF: PTSA 152342Z 1600/1624 VRB06KT P6SM VCSH SCT020 SCT140

Wetterbeobachtungen und Prognosen von mehr als 4000 Flughäfen (METAR und TAF Bericht).

Die verfügbaren Stationen werden durch gelbe und rote Markierungen auf der Karte dargestellt.

Führen Sie die Maus auf sie, um den Namen der Station zu sehen.

Darauf klicken, um die Beobachtung von Wetterbeobachtungen und Prognosen zu sehen.

Um die Karte zu ändern : klicken Sie auf den grünen Tasten mit einem schwarzen Kreuz Zum Vergrößern, auf den grünen Button mit einem Gedankenstrich zu verkleinern, oder auf die grünen Pfeile für benachbarte Karten.


METAR-TAF: